Time;durP1;ratioP1;P1;durP2;ratioP2;P2;SDS_P1;SDS_P2;PMS_P1;PMS_P2;Temp;Humidity;BMP_temperature;BMP_pressure;BME280_temperature;BME280_humidity;BME280_pressure;Samples;Min_cycle;Max_cycle;Signal;HPM_P1;HPM_P2
2022/09/18 00:01:42;;;;;;;7.10;2.80;;;9.60;99.90;;;;;;5041296;28;20651;-69
2022/09/18 00:04:12;;;;;;;6.23;1.90;;;9.50;99.90;;;;;;5043349;28;20285;-69
2022/09/18 00:06:39;;;;;;;4.20;2.60;;;9.50;99.90;;;;;;5048628;28;20191;-67
2022/09/18 00:09:08;;;;;;;6.10;3.10;;;9.60;99.90;;;;;;5057212;28;20435;-70
2022/09/18 00:11:36;;;;;;;3.07;2.53;;;9.60;99.90;;;;;;5044103;28;20428;-66
2022/09/18 00:14:04;;;;;;;4.83;2.30;;;9.60;99.90;;;;;;5048065;28;20465;-66
2022/09/18 00:16:30;;;;;;;3.10;2.73;;;9.60;99.90;;;;;;5043025;28;20429;-67
2022/09/18 00:18:56;;;;;;;5.53;2.03;;;9.70;99.90;;;;;;5046129;28;20487;-70
2022/09/18 00:21:23;;;;;;;8.17;2.80;;;9.70;99.90;;;;;;5040630;28;20567;-69
2022/09/18 00:23:53;;;;;;;4.10;2.37;;;9.70;99.90;;;;;;5038426;28;20669;-66
2022/09/18 00:26:19;;;;;;;6.30;2.53;;;9.70;99.90;;;;;;5053380;28;20442;-67
2022/09/18 00:28:45;;;;;;;5.33;2.07;;;9.70;99.90;;;;;;5044515;28;20437;-70
2022/09/18 00:31:13;;;;;;;7.50;2.50;;;9.70;99.90;;;;;;5044459;28;20210;-69
2022/09/18 00:33:39;;;;;;;5.73;2.40;;;9.70;99.90;;;;;;5056868;28;20470;-69
2022/09/18 00:36:07;;;;;;;4.27;2.67;;;9.70;99.90;;;;;;5040757;28;20434;-67
2022/09/18 00:38:34;;;;;;;2.17;2.07;;;9.60;99.90;;;;;;5042215;28;20436;-67
2022/09/18 00:41:01;;;;;;;2.80;2.40;;;9.60;99.90;;;;;;5035461;28;20817;-69
2022/09/18 00:43:29;;;;;;;6.27;4.03;;;9.60;99.90;;;;;;5040148;28;20513;-67
2022/09/18 00:46:19;;;;;;;4.80;3.63;;;9.60;99.90;;;;;;5040316;28;20799;-68
2022/09/18 00:48:53;;;;;;;3.00;2.30;;;9.60;99.90;;;;;;5047556;28;20462;-67
2022/09/18 00:51:18;;;;;;;5.73;2.70;;;9.60;99.90;;;;;;5044997;28;20548;-68
2022/09/18 00:53:57;;;;;;;4.03;2.70;;;9.60;99.90;;;;;;5037565;28;20933;-67
2022/09/18 00:56:24;;;;;;;4.77;2.70;;;9.60;99.90;;;;;;5047308;28;20181;-68
2022/09/18 00:58:50;;;;;;;2.73;2.43;;;9.60;99.90;;;;;;5037337;28;20834;-67
2022/09/18 01:01:16;;;;;;;4.07;2.33;;;9.70;99.90;;;;;;5041426;28;20432;-67
2022/09/18 01:03:41;;;;;;;5.10;2.40;;;9.60;99.90;;;;;;5039582;28;20825;-70
2022/09/18 01:06:15;;;;;;;4.77;2.63;;;9.60;99.90;;;;;;5038081;28;20550;-67
2022/09/18 01:08:56;;;;;;;2.63;2.43;;;9.50;99.90;;;;;;5048867;28;20257;-68
2022/09/18 01:11:48;;;;;;;2.83;2.30;;;9.60;99.90;;;;;;5049099;28;20431;-67
2022/09/18 01:14:32;;;;;;;6.43;3.20;;;9.60;99.90;;;;;;5046441;28;20468;-67
2022/09/18 01:17:17;;;;;;;4.00;2.23;;;9.60;99.90;;;;;;5048488;28;20427;-68
2022/09/18 01:20:13;;;;;;;3.93;2.90;;;9.50;99.90;;;;;;5050230;28;20427;-68
2022/09/18 01:23:03;;;;;;;4.13;2.30;;;9.50;99.90;;;;;;5058221;28;20834;-67
2022/09/18 01:25:39;;;;;;;3.27;2.70;;;9.60;99.90;;;;;;5047172;28;20459;-68
2022/09/18 01:28:35;;;;;;;4.20;2.23;;;9.70;99.90;;;;;;5049364;28;20518;-68
2022/09/18 01:31:07;;;;;;;2.23;2.03;;;9.70;99.90;;;;;;5054459;28;20428;-67
2022/09/18 01:33:40;;;;;;;4.57;2.50;;;9.70;99.90;;;;;;5049371;28;20506;-68
2022/09/18 01:36:12;;;;;;;4.67;2.50;;;9.70;99.90;;;;;;5049276;28;20432;-67
2022/09/18 01:38:44;;;;;;;6.43;3.07;;;9.70;99.90;;;;;;5054357;28;20428;-69
2022/09/18 01:41:21;;;;;;;2.70;2.50;;;9.70;99.90;;;;;;5037625;28;20515;-68
2022/09/18 01:43:54;;;;;;;5.80;2.37;;;9.70;99.90;;;;;;5048069;28;20460;-69
2022/09/18 01:46:22;;;;;;;7.73;2.80;;;9.60;99.90;;;;;;5048786;28;21011;-68
2022/09/18 01:48:54;;;;;;;4.73;2.33;;;9.60;99.90;;;;;;5046416;28;20448;-67
2022/09/18 01:51:24;;;;;;;5.23;1.83;;;9.50;99.90;;;;;;5045441;28;20850;-69
2022/09/18 01:54:01;;;;;;;10.00;2.17;;;9.50;99.90;;;;;;5044743;28;20472;-67
2022/09/18 01:56:34;;;;;;;3.37;2.03;;;9.40;99.90;;;;;;5052551;28;20905;-67
2022/09/18 01:59:08;;;;;;;4.67;2.67;;;9.40;99.90;;;;;;5050145;28;20449;-68
2022/09/18 02:01:35;;;;;;;3.10;2.17;;;9.40;99.90;;;;;;5046324;28;20432;-67
2022/09/18 02:04:07;;;;;;;6.50;2.53;;;9.50;99.90;;;;;;5038605;28;20615;-69
2022/09/18 02:06:48;;;;;;;5.13;2.50;;;9.50;99.90;;;;;;5054531;28;20435;-67
2022/09/18 02:09:13;;;;;;;3.40;2.50;;;9.50;99.90;;;;;;5050133;28;20856;-67
2022/09/18 02:11:44;;;;;;;2.50;2.10;;;9.40;99.90;;;;;;5054212;28;20444;-67
2022/09/18 02:14:13;;;;;;;6.87;2.30;;;9.50;99.90;;;;;;5051512;28;20215;-68
2022/09/18 02:16:47;;;;;;;3.50;2.37;;;9.40;99.90;;;;;;5051334;28;20967;-68
2022/09/18 02:19:20;;;;;;;3.27;2.50;;;9.40;99.90;;;;;;5047625;28;20436;-67
2022/09/18 02:21:47;;;;;;;3.87;2.53;;;9.40;99.90;;;;;;5052398;28;20523;-67
2022/09/18 02:24:15;;;;;;;6.57;2.63;;;9.40;99.90;;;;;;5042298;28;20526;-68
2022/09/18 02:26:42;;;;;;;2.10;1.97;;;9.40;99.90;;;;;;5048550;28;20439;-69
2022/09/18 02:29:11;;;;;;;3.60;2.57;;;9.30;99.90;;;;;;5044960;28;20497;-69
2022/09/18 02:31:37;;;;;;;6.03;2.30;;;9.30;99.90;;;;;;5047063;28;20435;-68
2022/09/18 02:34:03;;;;;;;2.67;2.47;;;9.30;99.90;;;;;;5043866;28;20473;-70
2022/09/18 02:36:53;;;;;;;5.33;2.23;;;9.30;99.90;;;;;;5046699;28;20443;-67
2022/09/18 02:39:38;;;;;;;4.00;2.60;;;9.30;99.90;;;;;;5047795;28;20459;-67
2022/09/18 02:42:24;;;;;;;6.50;2.33;;;9.40;99.90;;;;;;5048640;28;20425;-68
2022/09/18 02:45:10;;;;;;;8.80;2.50;;;9.30;99.90;;;;;;5053733;28;20507;-67
2022/09/18 02:48:10;;;;;;;7.63;2.47;;;9.30;99.90;;;;;;5037689;28;20432;-67
2022/09/18 02:50:57;;;;;;;3.77;2.33;;;9.30;99.90;;;;;;5052034;28;20442;-68
2022/09/18 02:53:29;;;;;;;3.67;2.37;;;9.40;99.90;;;;;;5038040;28;20497;-68
2022/09/18 02:56:04;;;;;;;5.50;2.30;;;9.30;99.90;;;;;;5046161;28;20428;-68
2022/09/18 02:58:49;;;;;;;4.50;2.20;;;9.30;99.90;;;;;;5044689;28;20462;-68
2022/09/18 03:01:17;;;;;;;3.17;2.33;;;9.30;99.90;;;;;;5038954;28;20433;-67
2022/09/18 03:03:42;;;;;;;6.37;3.20;;;9.30;99.90;;;;;;5048856;28;20461;-70
2022/09/18 03:06:08;;;;;;;3.10;2.80;;;9.30;99.90;;;;;;5053904;28;20427;-71
2022/09/18 03:08:34;;;;;;;2.87;2.37;;;9.30;99.90;;;;;;5046517;28;20188;-67
2022/09/18 03:10:59;;;;;;;3.63;2.83;;;9.30;99.90;;;;;;5061593;28;20466;-67
2022/09/18 03:13:25;;;;;;;8.23;2.60;;;9.40;99.90;;;;;;5043617;28;20207;-68
2022/09/18 03:15:50;;;;;;;2.80;2.60;;;9.40;99.90;;;;;;5040959;28;20170;-68
2022/09/18 03:18:16;;;;;;;3.13;2.23;;;9.30;99.90;;;;;;5039674;28;20255;-67
2022/09/18 03:20:42;;;;;;;3.20;2.90;;;9.30;99.90;;;;;;5044127;28;20524;-68
2022/09/18 03:23:09;;;;;;;6.80;2.10;;;9.30;99.90;;;;;;5042451;28;20569;-67
2022/09/18 03:25:35;;;;;;;4.63;2.90;;;9.30;99.90;;;;;;5046459;28;20428;-67
2022/09/18 03:28:01;;;;;;;3.07;2.70;;;9.20;99.90;;;;;;5042623;28;20494;-68
2022/09/18 03:30:26;;;;;;;3.30;1.90;;;9.20;99.90;;;;;;5047598;28;20935;-68
2022/09/18 03:32:52;;;;;;;4.80;2.70;;;9.20;99.90;;;;;;5041087;28;20223;-66
2022/09/18 03:35:19;;;;;;;3.80;3.00;;;9.10;99.90;;;;;;5064581;22;20225;-66
2022/09/18 03:37:44;;;;;;;3.17;2.13;;;9.20;99.90;;;;;;5040109;28;20173;-66
2022/09/18 03:40:09;;;;;;;7.43;2.10;;;9.10;99.90;;;;;;5044865;28;20963;-66
2022/09/18 03:42:35;;;;;;;5.93;2.30;;;9.10;99.90;;;;;;5044888;28;20183;-66
2022/09/18 03:45:00;;;;;;;2.50;2.23;;;9.10;99.90;;;;;;5038624;28;20209;-66
2022/09/18 03:47:26;;;;;;;2.73;2.50;;;9.10;99.90;;;;;;5029269;28;20773;-66
2022/09/18 03:49:52;;;;;;;2.40;2.20;;;9.10;99.90;;;;;;5029318;28;20201;-66
2022/09/18 03:52:18;;;;;;;2.67;2.20;;;9.10;99.90;;;;;;5029379;28;20227;-66
2022/09/18 03:54:44;;;;;;;2.50;2.30;;;9.10;99.90;;;;;;5029832;28;20210;-66
2022/09/18 03:57:09;;;;;;;2.57;2.23;;;9.10;99.90;;;;;;5030974;28;20189;-66
2022/09/18 03:59:35;;;;;;;3.70;2.40;;;9.10;99.90;;;;;;5029366;28;20432;-66
2022/09/18 04:02:01;;;;;;;3.20;1.93;;;9.10;99.90;;;;;;5028200;28;20647;-66
2022/09/18 04:04:27;;;;;;;3.13;2.10;;;9.20;99.90;;;;;;5031324;28;20202;-66
2022/09/18 04:06:53;;;;;;;1.90;1.80;;;9.20;99.90;;;;;;5030156;28;20631;-66
2022/09/18 04:09:18;;;;;;;4.10;2.37;;;9.20;99.90;;;;;;5029264;28;20519;-66
2022/09/18 04:11:44;;;;;;;5.90;2.10;;;9.30;99.90;;;;;;5029853;28;20179;-66
2022/09/18 04:14:10;;;;;;;4.43;2.73;;;9.30;99.90;;;;;;5031362;28;20210;-66
2022/09/18 04:16:36;;;;;;;2.73;2.57;;;9.30;99.90;;;;;;5029969;28;20174;-66
2022/09/18 04:19:01;;;;;;;2.83;2.50;;;9.40;99.90;;;;;;5028411;28;20440;-66
2022/09/18 04:21:27;;;;;;;3.63;2.30;;;9.40;99.90;;;;;;5029571;28;20186;-66
2022/09/18 04:23:54;;;;;;;2.90;2.30;;;9.30;99.90;;;;;;5028272;28;20224;-66
2022/09/18 04:26:19;;;;;;;1.93;1.53;;;9.30;99.90;;;;;;5029586;28;20209;-66
2022/09/18 04:28:45;;;;;;;3.73;2.43;;;9.20;99.90;;;;;;5028829;28;20468;-63
2022/09/18 04:31:11;;;;;;;2.97;2.33;;;9.20;99.90;;;;;;5030109;28;20190;-64
2022/09/18 04:33:37;;;;;;;2.27;2.10;;;9.20;99.90;;;;;;5027978;28;20213;-64
2022/09/18 04:36:02;;;;;;;5.30;2.80;;;9.20;99.90;;;;;;5030156;28;20448;-63
2022/09/18 04:38:28;;;;;;;3.10;2.17;;;9.20;99.90;;;;;;5028906;28;20199;-63
2022/09/18 04:40:59;;;;;;;2.10;2.00;;;9.20;99.90;;;;;;5028892;28;20659;-64
2022/09/18 04:43:25;;;;;;;3.63;1.80;;;9.20;99.90;;;;;;5029572;28;20190;-64
2022/09/18 04:45:51;;;;;;;2.10;1.90;;;9.20;99.90;;;;;;5029642;28;20461;-64
2022/09/18 04:48:17;;;;;;;3.30;2.40;;;9.20;99.90;;;;;;5028771;28;20436;-66
2022/09/18 04:50:45;;;;;;;2.87;2.60;;;9.20;99.90;;;;;;5030297;28;20441;-64
2022/09/18 04:53:10;;;;;;;3.20;2.37;;;9.20;99.90;;;;;;5029475;28;20934;-63
2022/09/18 04:55:36;;;;;;;3.30;2.27;;;9.20;99.90;;;;;;5028773;28;20532;-63
2022/09/18 04:58:02;;;;;;;4.50;2.10;;;9.20;99.90;;;;;;5028614;28;20182;-64
2022/09/18 05:00:28;;;;;;;2.90;2.70;;;9.20;99.90;;;;;;5028668;28;20186;-64
2022/09/18 05:02:54;;;;;;;3.03;2.67;;;9.20;99.90;;;;;;5028011;28;20448;-64
2022/09/18 05:05:19;;;;;;;2.50;2.27;;;9.20;99.90;;;;;;5028715;28;20217;-64
2022/09/18 05:07:45;;;;;;;3.13;2.93;;;9.20;99.90;;;;;;5028416;28;20445;-63
2022/09/18 05:10:10;;;;;;;4.97;2.53;;;9.20;99.90;;;;;;5029008;28;20178;-64
2022/09/18 05:12:39;;;;;;;2.83;2.50;;;9.20;99.90;;;;;;5030719;28;20186;-64
2022/09/18 05:15:05;;;;;;;3.80;2.90;;;9.20;99.90;;;;;;5029901;28;20236;-64
2022/09/18 05:17:31;;;;;;;2.37;2.17;;;9.20;99.90;;;;;;5029600;28;20783;-64
2022/09/18 05:19:57;;;;;;;4.33;3.67;;;9.20;99.90;;;;;;5028984;28;20483;-64
2022/09/18 05:22:23;;;;;;;2.70;2.20;;;9.20;99.90;;;;;;5031133;28;20441;-63
2022/09/18 05:24:48;;;;;;;3.43;3.17;;;9.20;99.90;;;;;;5029105;28;20206;-64
2022/09/18 05:27:14;;;;;;;2.80;2.60;;;9.20;99.90;;;;;;5031524;28;20174;-64
2022/09/18 05:29:40;;;;;;;4.07;3.00;;;9.30;99.90;;;;;;5029069;28;20182;-66
2022/09/18 05:32:06;;;;;;;5.67;3.63;;;9.40;99.90;;;;;;5029731;28;20661;-66
2022/09/18 05:34:31;;;;;;;4.50;2.50;;;9.30;99.90;;;;;;5030242;28;20268;-66
2022/09/18 05:36:57;;;;;;;2.93;2.63;;;9.20;99.90;;;;;;5030355;28;20178;-66
2022/09/18 05:39:22;;;;;;;3.43;2.70;;;9.20;99.90;;;;;;5029089;28;20186;-67
2022/09/18 05:41:51;;;;;;;2.93;2.73;;;9.30;99.90;;;;;;5029979;28;20732;-66
2022/09/18 05:44:17;;;;;;;3.43;3.23;;;9.30;99.90;;;;;;5030502;28;20217;-66
2022/09/18 05:46:45;;;;;;;3.90;2.67;;;9.20;99.90;;;;;;5029852;28;20433;-66
2022/09/18 05:49:10;;;;;;;4.50;4.10;;;9.30;99.90;;;;;;5029353;28;20448;-66
2022/09/18 05:51:37;;;;;;;4.90;3.27;;;9.30;99.90;;;;;;5029976;28;20441;-66
2022/09/18 05:54:04;;;;;;;5.20;3.27;;;9.30;99.90;;;;;;5030597;28;20582;-66
2022/09/18 05:56:29;;;;;;;4.40;2.50;;;9.30;99.90;;;;;;5032495;28;20444;-67
2022/09/18 05:58:55;;;;;;;2.67;2.47;;;9.30;99.90;;;;;;5031503;28;20812;-66
2022/09/18 06:01:21;;;;;;;2.53;2.30;;;9.30;99.90;;;;;;5032509;28;20178;-66
2022/09/18 06:03:49;;;;;;;3.77;2.87;;;9.30;99.90;;;;;;5032194;28;20217;-66
2022/09/18 06:06:14;;;;;;;6.33;3.10;;;9.40;99.90;;;;;;5033205;28;20174;-66
2022/09/18 06:08:39;;;;;;;3.10;2.80;;;9.40;99.90;;;;;;5030721;28;20433;-66
2022/09/18 06:11:05;;;;;;;6.87;3.07;;;9.40;99.90;;;;;;5033439;28;20178;-66
2022/09/18 06:13:30;;;;;;;3.80;2.70;;;9.40;99.90;;;;;;5029768;28;20209;-66
2022/09/18 06:15:57;;;;;;;7.20;3.30;;;9.40;99.90;;;;;;5033176;28;20178;-66
2022/09/18 06:18:23;;;;;;;5.53;3.27;;;9.40;99.90;;;;;;5032342;28;20565;-66
2022/09/18 06:20:55;;;;;;;3.60;3.30;;;9.40;99.90;;;;;;5030510;28;20486;-66
2022/09/18 06:23:22;;;;;;;6.37;3.10;;;9.40;99.90;;;;;;5026582;28;20518;-64
2022/09/18 06:25:54;;;;;;;5.77;3.40;;;9.40;99.90;;;;;;5030732;28;20852;-63
2022/09/18 06:28:20;;;;;;;4.63;3.80;;;9.50;99.90;;;;;;5030083;28;20495;-63
2022/09/18 06:30:45;;;;;;;7.70;4.00;;;9.50;99.90;;;;;;5031218;28;20437;-63
2022/09/18 06:33:11;;;;;;;6.87;4.70;;;9.60;99.90;;;;;;5033419;28;20190;-63
2022/09/18 06:35:41;;;;;;;4.23;3.83;;;9.60;99.90;;;;;;5031378;28;20238;-64
2022/09/18 06:38:07;;;;;;;4.80;3.47;;;9.60;99.90;;;;;;5031714;28;20174;-66
2022/09/18 06:40:33;;;;;;;3.83;3.53;;;9.60;99.90;;;;;;5027937;28;20512;-66
2022/09/18 06:43:00;;;;;;;5.60;3.63;;;9.50;99.90;;;;;;5032090;28;20609;-66
2022/09/18 06:45:26;;;;;;;4.40;3.60;;;9.50;99.90;;;;;;5032285;28;20552;-66
2022/09/18 06:47:53;;;;;;;6.10;4.40;;;9.60;99.90;;;;;;5032973;28;20471;-66
2022/09/18 06:50:23;;;;;;;3.87;3.57;;;9.70;99.90;;;;;;5032512;28;20443;-66
2022/09/18 06:52:49;;;;;;;3.50;3.30;;;9.70;99.90;;;;;;5032775;28;20433;-66
2022/09/18 06:55:16;;;;;;;4.57;4.17;;;9.80;99.90;;;;;;5032551;28;20456;-66
2022/09/18 06:57:42;;;;;;;5.87;5.10;;;10.00;99.90;;;;;;5031903;28;20537;-66
2022/09/18 07:00:08;;;;;;;9.63;8.27;;;10.00;99.90;;;;;;5031950;28;20439;-66
2022/09/18 07:02:34;;;;;;;4.93;4.40;;;10.10;99.90;;;;;;5032800;28;20240;-66
2022/09/18 07:05:00;;;;;;;4.97;4.47;;;10.20;99.90;;;;;;5032394;28;20873;-66
2022/09/18 07:07:25;;;;;;;6.10;4.23;;;10.20;99.90;;;;;;5031678;28;20483;-66
2022/09/18 07:09:51;;;;;;;5.57;4.50;;;10.20;99.90;;;;;;5031320;28;20202;-66
2022/09/18 07:12:17;;;;;;;3.63;3.30;;;10.30;99.90;;;;;;5025743;28;20858;-66
2022/09/18 07:14:42;;;;;;;9.27;3.80;;;10.30;99.90;;;;;;5031652;28;20288;-66
2022/09/18 07:17:09;;;;;;;4.57;3.47;;;10.40;99.90;;;;;;5031658;28;20190;-66
2022/09/18 07:19:35;;;;;;;4.13;3.63;;;10.50;99.90;;;;;;5029670;28;20186;-66
2022/09/18 07:22:00;;;;;;;3.47;2.97;;;10.50;99.90;;;;;;5031362;28;20526;-65
2022/09/18 07:24:26;;;;;;;4.13;3.63;;;10.50;99.90;;;;;;5030742;28;20252;-66
2022/09/18 07:26:52;;;;;;;4.33;4.00;;;10.60;99.90;;;;;;5030318;28;20263;-66
2022/09/18 07:29:17;;;;;;;5.33;4.63;;;10.60;99.90;;;;;;5031303;28;20228;-65
2022/09/18 07:31:42;;;;;;;4.17;3.87;;;10.60;99.90;;;;;;5030659;28;20222;-66
2022/09/18 07:34:10;;;;;;;5.30;3.70;;;10.70;99.90;;;;;;5030765;28;20268;-66
2022/09/18 07:36:36;;;;;;;4.17;3.33;;;10.60;99.90;;;;;;5029722;28;20580;-66
2022/09/18 07:39:01;;;;;;;4.93;4.00;;;10.60;99.90;;;;;;5029966;28;20532;-66
2022/09/18 07:41:27;;;;;;;3.80;3.43;;;10.50;99.90;;;;;;5031332;28;20190;-66
2022/09/18 07:43:52;;;;;;;5.50;4.57;;;10.60;99.90;;;;;;5031826;28;20576;-67
2022/09/18 07:46:18;;;;;;;7.00;4.60;;;10.60;99.90;;;;;;5033549;28;20324;-67
2022/09/18 07:48:43;;;;;;;6.10;3.60;;;10.60;99.90;;;;;;5031422;28;20197;-67
2022/09/18 07:51:09;;;;;;;3.57;3.27;;;10.70;99.90;;;;;;5030316;28;20305;-67
2022/09/18 07:53:36;;;;;;;3.10;2.90;;;10.60;99.90;;;;;;5030819;28;20290;-66
2022/09/18 07:56:06;;;;;;;3.80;3.50;;;10.50;99.90;;;;;;5031918;28;20177;-66
2022/09/18 07:58:31;;;;;;;4.20;3.90;;;10.50;99.90;;;;;;5029965;28;20582;-67
2022/09/18 08:00:59;;;;;;;3.13;2.90;;;10.50;99.90;;;;;;5030245;28;20519;-67
2022/09/18 08:03:25;;;;;;;6.23;2.77;;;10.40;99.90;;;;;;5023729;28;20211;-68
2022/09/18 08:05:52;;;;;;;5.50;3.43;;;10.40;99.90;;;;;;5029637;28;20429;-68
2022/09/18 08:08:17;;;;;;;3.23;2.93;;;10.50;99.90;;;;;;5030591;28;20181;-69
2022/09/18 08:10:43;;;;;;;3.10;2.77;;;10.60;99.90;;;;;;5022030;28;20848;-68
2022/09/18 08:13:09;;;;;;;3.80;2.93;;;10.10;99.90;;;;;;5031573;28;20192;-69
2022/09/18 08:15:37;;;;;;;2.90;2.70;;;10.60;99.90;;;;;;5030534;28;20818;-66
2022/09/18 08:18:05;;;;;;;3.60;3.30;;;10.60;99.90;;;;;;5030582;28;20938;-67
2022/09/18 08:20:30;;;;;;;4.47;3.40;;;10.50;99.90;;;;;;5029896;28;20444;-66
2022/09/18 08:22:57;;;;;;;3.90;3.60;;;10.50;99.90;;;;;;5031099;28;20851;-66
2022/09/18 08:25:23;;;;;;;2.90;2.60;;;10.60;99.90;;;;;;5029885;28;20256;-66
2022/09/18 08:27:48;;;;;;;3.27;2.77;;;10.50;99.90;;;;;;5030602;28;20429;-66
2022/09/18 08:30:15;;;;;;;2.73;2.43;;;10.50;99.90;;;;;;5030465;28;20198;-67
2022/09/18 08:32:41;;;;;;;4.33;2.70;;;10.60;99.90;;;;;;5030108;28;20448;-66
2022/09/18 08:35:07;;;;;;;3.10;2.80;;;10.60;99.90;;;;;;5030180;28;20935;-67
2022/09/18 08:37:33;;;;;;;3.33;3.03;;;10.60;99.90;;;;;;5029635;28;20261;-66
2022/09/18 08:39:58;;;;;;;3.00;2.60;;;10.70;99.90;;;;;;5022674;28;20185;-66
2022/09/18 08:42:33;;;;;;;5.03;2.93;;;10.90;99.90;;;;;;5031410;28;20244;-66
2022/09/18 08:45:06;;;;;;;3.13;2.87;;;11.00;99.90;;;;;;5027988;28;20706;-66
2022/09/18 08:47:39;;;;;;;2.40;2.20;;;11.20;99.90;;;;;;5029588;28;20443;-66
2022/09/18 08:50:26;;;;;;;3.87;2.60;;;11.30;99.90;;;;;;5030033;28;20445;-66
2022/09/18 08:53:13;;;;;;;2.93;2.70;;;11.40;99.90;;;;;;5030716;28;20444;-67
2022/09/18 08:55:42;;;;;;;6.80;3.10;;;11.30;99.90;;;;;;5030229;28;20440;-66
2022/09/18 08:58:18;;;;;;;2.67;2.40;;;11.40;99.90;;;;;;5030427;28;20449;-66
2022/09/18 09:00:47;;;;;;;3.73;2.80;;;11.30;99.90;;;;;;5030420;28;20810;-66
2022/09/18 09:03:23;;;;;;;3.43;2.90;;;11.40;99.90;;;;;;5029024;28;20448;-67
2022/09/18 09:06:13;;;;;;;5.20;3.80;;;11.40;99.90;;;;;;5030903;28;20449;-66
2022/09/18 09:09:12;;;;;;;7.30;3.10;;;11.40;99.90;;;;;;4986741;28;20934;-67
2022/09/18 09:12:12;;;;;;;5.63;3.43;;;11.50;99.90;;;;;;5028048;28;20441;-66
2022/09/18 09:15:09;;;;;;;5.43;3.17;;;11.50;99.90;;;;;;4987337;28;20493;-67
2022/09/18 09:17:39;;;;;;;3.60;2.57;;;11.60;99.90;;;;;;5029037;28;20437;-66
2022/09/18 09:20:25;;;;;;;5.07;3.20;;;11.70;99.90;;;;;;5028532;28;20440;-67
2022/09/18 09:23:01;;;;;;;5.30;3.20;;;11.80;99.90;;;;;;5029817;28;20490;-66
2022/09/18 09:25:39;;;;;;;3.83;3.63;;;11.90;99.90;;;;;;5026815;28;20993;-67
2022/09/18 09:28:16;;;;;;;4.20;3.00;;;11.90;99.90;;;;;;5023465;28;20436;-67
2022/09/18 09:30:45;;;;;;;6.27;2.70;;;11.90;99.90;;;;;;5030684;28;20508;-67
2022/09/18 09:33:13;;;;;;;4.30;2.97;;;11.80;99.90;;;;;;5032603;28;20490;-67
2022/09/18 09:35:45;;;;;;;3.00;2.70;;;11.80;99.90;;;;;;5072217;22;20484;-66
2022/09/18 09:38:43;;;;;;;5.07;3.10;;;11.90;99.90;;;;;;5059312;28;20465;-65
2022/09/18 09:41:34;;;;;;;4.00;2.70;;;11.90;99.90;;;;;;5058570;28;20470;-66
2022/09/18 09:44:08;;;;;;;3.23;2.70;;;12.00;99.90;;;;;;5051836;28;20558;-67
2022/09/18 09:46:54;;;;;;;5.90;2.90;;;12.10;99.90;;;;;;5046845;28;20465;-66
2022/09/18 09:49:26;;;;;;;4.20;2.97;;;12.30;99.90;;;;;;5031216;28;20921;-66
2022/09/18 09:52:08;;;;;;;5.37;2.27;;;12.50;99.90;;;;;;5034301;28;20440;-66
2022/09/18 09:54:33;;;;;;;2.70;2.13;;;12.70;99.90;;;;;;5041897;28;20452;-67
2022/09/18 09:57:29;;;;;;;8.00;3.13;;;12.90;99.90;;;;;;5053588;28;20442;-66
2022/09/18 10:00:16;;;;;;;5.33;3.30;;;13.30;99.90;;;;;;5006227;28;20205;-66
2022/09/18 10:02:48;;;;;;;3.00;2.70;;;14.10;99.90;;;;;;5031909;28;20433;-67
2022/09/18 10:05:27;;;;;;;3.50;2.30;;;14.70;99.90;;;;;;5040061;28;20467;-66
2022/09/18 10:08:07;;;;;;;5.67;4.40;;;14.80;99.90;;;;;;5030214;28;20441;-66
2022/09/18 10:10:47;;;;;;;2.00;1.80;;;14.40;99.90;;;;;;5031329;28;20444;-66
2022/09/18 10:13:20;;;;;;;3.83;3.47;;;14.50;99.90;;;;;;5033854;28;20441;-66
2022/09/18 10:15:50;;;;;;;5.53;3.73;;;14.80;99.90;;;;;;5040903;28;20463;-66
2022/09/18 10:18:22;;;;;;;7.27;2.70;;;15.10;99.90;;;;;;5033002;28;20437;-67
2022/09/18 10:20:54;;;;;;;5.80;4.07;;;15.10;99.90;;;;;;5036896;28;20540;-69
2022/09/18 10:23:29;;;;;;;5.10;4.17;;;15.30;99.90;;;;;;5036359;28;20440;-65
2022/09/18 10:25:58;;;;;;;5.93;2.30;;;15.30;99.90;;;;;;5030632;28;20451;-65
2022/09/18 10:28:28;;;;;;;4.87;2.33;;;15.40;99.90;;;;;;5036530;28;20463;-65
2022/09/18 10:30:59;;;;;;;3.80;2.30;;;15.30;99.90;;;;;;5039355;28;20469;-66
2022/09/18 10:33:42;;;;;;;1.70;1.60;;;15.10;99.90;;;;;;5036413;28;20938;-65
2022/09/18 10:36:18;;;;;;;3.10;2.47;;;15.10;99.90;;;;;;5032248;28;20811;-64
2022/09/18 10:38:44;;;;;;;5.23;2.10;;;15.30;99.90;;;;;;5041222;28;20925;-68
2022/09/18 10:41:18;;;;;;;5.03;2.27;;;15.70;99.90;;;;;;5034886;28;20515;-68
2022/09/18 10:44:02;;;;;;;4.03;3.20;;;15.80;99.90;;;;;;5036226;28;20513;-68
2022/09/18 10:46:31;;;;;;;6.10;2.00;;;16.00;99.90;;;;;;5034568;28;20479;-70
2022/09/18 10:49:00;;;;;;;6.03;2.07;;;16.30;99.90;;;;;;5035412;28;20951;-71
2022/09/18 10:51:27;;;;;;;1.50;1.40;;;16.60;99.90;;;;;;5041697;28;20440;-69
2022/09/18 10:54:02;;;;;;;1.67;1.50;;;17.20;99.90;;;;;;5035912;28;20489;-67
2022/09/18 10:56:29;;;;;;;3.03;1.40;;;17.70;99.90;;;;;;5034083;28;20531;-66
2022/09/18 10:58:54;;;;;;;3.80;1.80;;;18.50;99.90;;;;;;5027414;28;20518;-66
2022/09/18 11:01:22;;;;;;;1.90;1.73;;;19.70;99.90;;;;;;5042473;28;20514;-66
2022/09/18 11:04:02;;;;;;;1.97;1.60;;;19.40;99.90;;;;;;5043336;28;20245;-66
2022/09/18 11:06:31;;;;;;;2.97;1.70;;;19.80;99.90;;;;;;5035565;28;20433;-70
2022/09/18 11:09:00;;;;;;;1.30;1.10;;;20.50;99.30;;;;;;5035387;28;20527;-71
2022/09/18 11:11:29;;;;;;;4.40;1.97;;;19.50;99.90;;;;;;5038442;28;20482;-70
2022/09/18 11:13:58;;;;;;;3.60;1.60;;;19.40;99.90;;;;;;5036327;28;20459;-70
2022/09/18 11:16:27;;;;;;;3.17;1.90;;;18.70;99.90;;;;;;5044245;28;20519;-71
2022/09/18 11:19:20;;;;;;;3.97;2.50;;;18.40;99.90;;;;;;5037251;28;20523;-71
2022/09/18 11:21:49;;;;;;;2.57;1.93;;;19.20;99.90;;;;;;5033664;28;20486;-71
2022/09/18 11:24:36;;;;;;;2.50;2.30;;;19.50;98.00;;;;;;5034059;28;20473;-72
2022/09/18 11:27:18;;;;;;;3.30;1.70;;;19.40;99.90;;;;;;5036866;28;20433;-70
2022/09/18 11:29:43;;;;;;;2.20;1.50;;;19.60;98.10;;;;;;5034399;28;20485;-71
2022/09/18 11:32:25;;;;;;;1.23;1.13;;;19.50;96.60;;;;;;5033170;28;20515;-71
2022/09/18 11:35:01;;;;;;;5.13;2.20;;;19.40;96.50;;;;;;5039014;28;20206;-72
2022/09/18 11:37:30;;;;;;;3.33;1.40;;;19.30;97.00;;;;;;5040301;28;20435;-67
2022/09/18 11:40:05;;;;;;;2.90;1.50;;;18.90;98.10;;;;;;5029492;28;20811;-66
2022/09/18 11:42:31;;;;;;;4.10;1.73;;;20.10;97.20;;;;;;5042611;28;20895;-67
2022/09/18 11:45:33;;;;;;;5.23;3.80;;;21.20;93.20;;;;;;5043311;28;20468;-67
2022/09/18 11:48:09;;;;;;;3.23;1.27;;;21.10;93.50;;;;;;5017708;28;20185;-67
2022/09/18 11:50:36;;;;;;;1.50;1.30;;;21.10;92.60;;;;;;5039885;28;20435;-66
2022/09/18 11:53:28;;;;;;;3.00;1.40;;;21.70;92.10;;;;;;5039060;28;20436;-67
2022/09/18 11:56:02;;;;;;;2.03;0.93;;;21.80;88.30;;;;;;5033814;28;20459;-67
2022/09/18 11:58:45;;;;;;;1.70;1.50;;;21.30;89.00;;;;;;5048292;28;20455;-67
2022/09/18 12:01:49;;;;;;;2.30;1.33;;;20.80;90.00;;;;;;5033545;28;20448;-66
2022/09/18 12:04:48;;;;;;;3.00;1.70;;;20.10;90.50;;;;;;5039013;28;20485;-66
2022/09/18 12:07:36;;;;;;;1.67;1.10;;;19.40;91.00;;;;;;5032853;28;20442;-66
2022/09/18 12:10:06;;;;;;;1.93;1.40;;;18.40;91.70;;;;;;5028117;28;20957;-66
2022/09/18 12:12:59;;;;;;;1.20;1.10;;;18.10;93.70;;;;;;5040399;28;20487;-75
2022/09/18 12:15:32;;;;;;;1.63;1.10;;;17.50;92.00;;;;;;5045671;28;20467;-66
2022/09/18 12:18:14;;;;;;;1.37;1.27;;;17.40;93.30;;;;;;5046221;28;20507;-68
2022/09/18 12:20:45;;;;;;;3.50;1.53;;;17.00;92.90;;;;;;5035785;28;20452;-66
2022/09/18 12:23:14;;;;;;;1.47;1.37;;;16.70;93.40;;;;;;5042922;28;20463;-66
2022/09/18 12:26:09;;;;;;;2.90;1.50;;;16.80;94.70;;;;;;5046176;28;20463;-67
2022/09/18 12:28:41;;;;;;;1.57;1.47;;;17.10;94.50;;;;;;5044070;28;20463;-66
2022/09/18 12:31:14;;;;;;;2.83;1.70;;;17.30;94.30;;;;;;5041942;28;20450;-67
2022/09/18 12:34:15;;;;;;;1.03;0.93;;;17.80;93.70;;;;;;5047599;28;20440;-69
2022/09/18 12:37:15;;;;;;;2.93;1.37;;;19.00;90.40;;;;;;5043385;28;20437;-67
2022/09/18 12:39:47;;;;;;;3.03;1.50;;;18.20;91.40;;;;;;5044246;28;20516;-67
2022/09/18 12:42:19;;;;;;;4.70;1.90;;;17.70;92.40;;;;;;5029064;28;20443;-67
2022/09/18 12:44:58;;;;;;;1.77;1.20;;;17.30;92.90;;;;;;5034700;28;20468;-66
2022/09/18 12:47:40;;;;;;;2.70;1.30;;;17.40;93.40;;;;;;5037029;28;20766;-67
2022/09/18 12:50:21;;;;;;;2.07;1.90;;;18.10;93.40;;;;;;5045989;28;20505;-67
2022/09/18 12:53:02;;;;;;;2.90;2.03;;;19.50;91.10;;;;;;5038350;28;20460;-67
2022/09/18 12:55:49;;;;;;;1.20;1.10;;;20.70;87.20;;;;;;5037355;28;20843;-67
2022/09/18 12:58:38;;;;;;;1.20;0.90;;;20.60;84.10;;;;;;5030873;28;20465;-67
2022/09/18 13:01:18;;;;;;;1.17;1.00;;;20.40;86.30;;;;;;5025629;28;21022;-66
2022/09/18 13:03:45;;;;;;;3.57;1.10;;;20.90;80.10;;;;;;5029190;28;20909;-68
2022/09/18 13:06:14;;;;;;;1.37;1.13;;;19.90;81.30;;;;;;5026122;28;20536;-66
2022/09/18 13:08:54;;;;;;;2.40;1.20;;;19.40;83.50;;;;;;5030769;28;20452;-68
2022/09/18 13:11:35;;;;;;;2.00;1.30;;;19.00;85.20;;;;;;5034204;28;20512;-67
2022/09/18 13:14:09;;;;;;;2.93;1.60;;;19.00;86.10;;;;;;5028530;28;20582;-74
2022/09/18 13:16:55;;;;;;;2.40;1.30;;;19.00;84.80;;;;;;5033593;28;20471;-68